Airport View

Enter ICAO identifier to see the current METAR for that AWOS.

KFNL for example

KCTB 311256Z AUTO 27006KT 10SM CLR 15/06 A3015

31 Jul 2014 13:28

Frequency: 119.025

Phone: 406-873-2939

Other Area AWOS: K8S0 - CWRY - CWFJ - CYQL

TAF KCTB 311120Z 3112/0112 31009KT P6SM FEW110 FM312100 33011KT P6SM VCTS SCT100CB BKN120 FM010300 VRB06KT P6SM SCT120